createdAt,value
2018-09-19T00:02:09.122Z,9.87
2018-09-19T00:04:38.811Z,6.90
2018-09-19T00:07:08.401Z,7.67
2018-09-19T00:09:39.662Z,12.07
2018-09-19T00:12:08.019Z,7.07
2018-09-19T00:14:36.413Z,9.50
2018-09-19T00:17:04.758Z,10.00
2018-09-19T00:19:33.102Z,11.43
2018-09-19T00:22:01.495Z,11.63
2018-09-19T00:24:29.890Z,8.77
2018-09-19T00:26:58.208Z,11.93
2018-09-19T00:29:26.526Z,7.57
2018-09-19T00:31:54.898Z,7.97
2018-09-19T00:34:23.278Z,11.07
2018-09-19T00:36:51.653Z,10.23
2018-09-19T00:39:19.994Z,10.87
2018-09-19T00:41:48.358Z,9.93
2018-09-19T00:44:16.691Z,10.00
2018-09-19T00:46:45.060Z,8.50
2018-09-19T00:49:13.400Z,14.03
2018-09-19T00:51:41.736Z,10.73
2018-09-19T00:54:10.071Z,11.13
2018-09-19T00:56:38.407Z,9.17
2018-09-19T00:59:06.743Z,9.77
2018-09-19T01:01:35.135Z,10.20
2018-09-19T01:04:03.500Z,12.83
2018-09-19T01:06:31.898Z,7.37
2018-09-19T01:09:00.759Z,12.60
2018-09-19T01:11:29.106Z,11.10
2018-09-19T01:13:57.453Z,7.97
2018-09-19T01:16:25.798Z,7.57
2018-09-19T01:18:54.155Z,8.77
2018-09-19T01:21:22.507Z,8.13
2018-09-19T01:23:50.848Z,9.00
2018-09-19T01:26:19.199Z,8.83
2018-09-19T01:28:47.526Z,7.23
2018-09-19T01:31:15.861Z,9.63
2018-09-19T01:33:44.218Z,8.63
2018-09-19T01:36:12.540Z,9.10
2018-09-19T01:38:40.924Z,9.80
2018-09-19T01:41:09.287Z,10.40
2018-09-19T01:43:37.621Z,9.00
2018-09-19T01:46:07.168Z,10.27
2018-09-19T01:48:35.525Z,11.40
2018-09-19T01:51:03.872Z,10.53
2018-09-19T01:53:32.194Z,13.17
2018-09-19T01:56:00.546Z,8.33
2018-09-19T01:58:29.422Z,12.37
2018-09-19T02:00:57.772Z,8.70
2018-09-19T02:03:26.106Z,13.93
2018-09-19T02:05:54.443Z,12.23
2018-09-19T02:08:22.812Z,13.87
2018-09-19T02:10:51.157Z,12.97
2018-09-19T02:13:19.502Z,16.17
2018-09-19T02:15:47.851Z,12.63
2018-09-19T02:18:16.293Z,12.43
2018-09-19T02:20:44.657Z,13.87
2018-09-19T02:23:13.015Z,9.00
2018-09-19T02:25:41.355Z,9.73
2018-09-19T02:28:09.717Z,9.93
2018-09-19T02:30:38.090Z,13.37
2018-09-19T02:33:06.435Z,13.17
2018-09-19T02:35:34.770Z,14.70
2018-09-19T02:38:03.128Z,13.70
2018-09-19T02:40:31.459Z,12.07
2018-09-19T02:42:59.780Z,11.93
2018-09-19T02:45:28.103Z,12.40
2018-09-19T02:47:56.539Z,10.40
2018-09-19T02:50:24.916Z,14.87
2018-09-19T02:52:56.187Z,16.07
2018-09-19T02:55:25.389Z,11.53
2018-09-19T02:57:54.185Z,13.57
2018-09-19T03:00:22.556Z,14.37
2018-09-19T03:02:51.386Z,17.07
2018-09-19T03:05:19.943Z,14.43
2018-09-19T03:07:48.316Z,10.03
2018-09-19T03:10:16.661Z,13.30
2018-09-19T03:12:45.022Z,12.47
2018-09-19T03:15:13.387Z,14.00
2018-09-19T03:17:41.858Z,12.17
2018-09-19T03:20:10.251Z,12.60
2018-09-19T03:22:38.630Z,12.20
2018-09-19T03:25:07.007Z,13.00
2018-09-19T03:27:35.361Z,13.13
2018-09-19T03:30:03.718Z,17.63
2018-09-19T03:32:32.041Z,10.27
2018-09-19T03:35:00.420Z,10.67
2018-09-19T03:37:28.786Z,17.80
2018-09-19T03:39:57.115Z,12.97
2018-09-19T03:42:26.033Z,11.20
2018-09-19T03:44:54.389Z,13.43
2018-09-19T03:47:22.747Z,13.93
2018-09-19T03:49:51.882Z,16.20
2018-09-19T03:52:20.236Z,10.70
2018-09-19T03:54:48.614Z,12.47
2018-09-19T03:57:16.987Z,18.07
2018-09-19T03:59:45.305Z,14.00
2018-09-19T04:02:13.693Z,15.17
2018-09-19T04:04:42.079Z,17.77
2018-09-19T04:07:10.430Z,12.03
2018-09-19T04:09:38.808Z,11.00
2018-09-19T04:12:07.212Z,15.93
2018-09-19T04:14:35.587Z,12.83
2018-09-19T04:17:03.963Z,12.47
2018-09-19T04:19:32.306Z,10.93
2018-09-19T04:22:00.631Z,11.40
2018-09-19T04:24:28.989Z,18.30
2018-09-19T04:26:57.339Z,15.57
2018-09-19T04:29:25.689Z,14.97
2018-09-19T04:31:54.058Z,19.33
2018-09-19T04:34:22.405Z,12.87
2018-09-19T04:36:51.138Z,13.00
2018-09-19T04:39:19.474Z,13.03
2018-09-19T04:41:47.837Z,12.90
2018-09-19T04:44:16.243Z,16.83
2018-09-19T04:46:44.575Z,17.00
2018-09-19T04:49:12.907Z,11.90
2018-09-19T04:51:41.355Z,11.70
2018-09-19T04:54:09.840Z,37.00
2018-09-19T04:56:38.647Z,20.57
2018-09-19T04:59:06.987Z,22.13
2018-09-19T05:01:35.319Z,26.67
2018-09-19T05:04:03.653Z,18.87
2018-09-19T05:06:32.013Z,15.57
2018-09-19T05:09:00.368Z,23.57
2018-09-19T05:11:28.739Z,26.13
2018-09-19T05:13:57.079Z,20.60
2018-09-19T05:16:25.465Z,16.60
2018-09-19T05:18:53.800Z,19.37
2018-09-19T05:21:22.145Z,16.33
2018-09-19T05:23:50.509Z,18.07
2018-09-19T05:26:19.102Z,15.67
2018-09-19T05:28:47.457Z,19.80
2018-09-19T05:31:15.811Z,16.20
2018-09-19T05:33:44.321Z,14.97
2018-09-19T05:36:12.625Z,14.47
2018-09-19T05:38:40.969Z,14.07
2018-09-19T05:41:09.657Z,17.93
2018-09-19T05:43:38.015Z,15.27
2018-09-19T05:46:06.620Z,17.67
2018-09-19T05:48:35.592Z,14.10
2018-09-19T05:51:03.942Z,16.80
2018-09-19T05:53:32.293Z,17.87
2018-09-19T05:56:00.739Z,19.90
2018-09-19T05:58:29.079Z,19.80
2018-09-19T06:00:57.458Z,16.23
2018-09-19T06:03:25.792Z,20.47
2018-09-19T06:05:54.144Z,16.27
2018-09-19T06:08:22.491Z,19.10
2018-09-19T06:10:50.859Z,16.07
2018-09-19T06:13:19.226Z,14.67
2018-09-19T06:15:48.175Z,19.93
2018-09-19T06:18:16.524Z,20.20
2018-09-19T06:20:44.899Z,17.90
2018-09-19T06:23:13.252Z,17.77
2018-09-19T06:25:41.596Z,13.97
2018-09-19T06:28:09.966Z,14.10
2018-09-19T06:30:38.313Z,17.90
2018-09-19T06:33:06.827Z,12.93
2018-09-19T06:35:35.165Z,14.80
2018-09-19T06:38:03.520Z,18.07
2018-09-19T06:40:31.907Z,15.80
2018-09-19T06:43:00.551Z,23.13
2018-09-19T06:45:28.909Z,20.97
2018-09-19T06:47:57.303Z,18.33
2018-09-19T06:50:25.700Z,24.77
2018-09-19T06:52:54.051Z,21.87
2018-09-19T06:55:22.375Z,17.40
2018-09-19T06:57:51.138Z,20.43
2018-09-19T07:00:19.529Z,21.03
2018-09-19T07:02:47.996Z,15.67
2018-09-19T07:05:16.335Z,14.60
2018-09-19T07:07:44.726Z,17.07
2018-09-19T07:10:13.060Z,17.10
2018-09-19T07:12:41.434Z,12.47
2018-09-19T07:15:09.784Z,17.13
2018-09-19T07:17:38.140Z,12.60
2018-09-19T07:20:06.655Z,20.17
2018-09-19T07:22:34.988Z,21.50
2018-09-19T07:25:03.412Z,18.90
2018-09-19T07:27:31.784Z,17.43
2018-09-19T07:30:00.130Z,13.57
2018-09-19T07:32:28.510Z,17.93
2018-09-19T07:34:56.857Z,14.93
2018-09-19T07:37:25.199Z,14.67
2018-09-19T07:39:53.545Z,19.20
2018-09-19T07:42:21.927Z,17.33
2018-09-19T07:44:50.258Z,18.60
2018-09-19T07:47:18.597Z,12.63
2018-09-19T07:49:47.095Z,14.17
2018-09-19T07:52:28.712Z,19.77
2018-09-19T07:54:57.315Z,17.30
2018-09-19T07:57:29.499Z,20.07
2018-09-19T07:59:57.899Z,16.80
2018-09-19T08:02:26.267Z,15.77
2018-09-19T08:04:55.321Z,19.67
2018-09-19T08:07:23.756Z,14.33
2018-09-19T08:09:52.118Z,17.23
2018-09-19T08:12:20.560Z,16.43
2018-09-19T08:14:49.040Z,11.93
2018-09-19T08:17:17.404Z,13.37
2018-09-19T08:19:45.756Z,13.97
2018-09-19T08:22:14.121Z,12.40
2018-09-19T08:24:42.559Z,15.13
2018-09-19T08:27:10.927Z,18.73
2018-09-19T08:29:39.305Z,11.83
2018-09-19T08:32:07.638Z,12.97
2018-09-19T08:34:36.152Z,17.80
2018-09-19T08:37:04.569Z,15.57
2018-09-19T08:39:33.113Z,15.53
2018-09-19T08:42:01.565Z,24.27
2018-09-19T08:44:29.905Z,12.83
2018-09-19T08:46:58.288Z,17.13
2018-09-19T08:49:26.677Z,16.93
2018-09-19T08:51:55.025Z,15.87
2018-09-19T08:54:23.410Z,14.17
2018-09-19T08:56:51.819Z,13.87
2018-09-19T08:59:20.227Z,14.50
2018-09-19T09:01:48.865Z,14.37
2018-09-19T09:04:17.236Z,16.90
2018-09-19T09:06:45.689Z,15.87
2018-09-19T09:09:14.010Z,15.50
2018-09-19T09:11:42.389Z,11.10
2018-09-19T09:14:10.794Z,17.43
2018-09-19T09:16:39.175Z,15.90
2018-09-19T09:19:07.552Z,15.90
2018-09-19T09:21:35.948Z,12.05
2018-09-19T09:24:04.311Z,13.08
2018-09-19T09:26:32.676Z,11.10
2018-09-19T09:29:01.029Z,16.07
2018-09-19T09:31:29.376Z,15.75
2018-09-19T09:33:57.860Z,17.23
2018-09-19T09:36:26.308Z,18.42
2018-09-19T09:38:56.297Z,13.68
2018-09-19T09:41:24.672Z,17.35
2018-09-19T09:43:53.020Z,15.72
2018-09-19T09:46:21.402Z,11.63
2018-09-19T09:48:49.762Z,14.18
2018-09-19T09:51:18.145Z,13.30
2018-09-19T09:53:46.500Z,13.35
2018-09-19T09:56:14.847Z,11.83
2018-09-19T09:58:44.211Z,13.20
2018-09-19T10:01:12.629Z,13.95
2018-09-19T10:03:41.006Z,13.08
2018-09-19T10:06:09.382Z,13.98
2018-09-19T10:08:37.847Z,13.30
2018-09-19T10:11:06.804Z,15.40
2018-09-19T10:13:35.224Z,9.20
2018-09-19T10:16:03.585Z,13.08
2018-09-19T10:18:32.028Z,12.90
2018-09-19T10:21:00.385Z,10.32
2018-09-19T10:23:28.779Z,13.70
2018-09-19T10:25:57.156Z,12.53
2018-09-19T10:28:25.532Z,11.35
2018-09-19T10:30:53.925Z,9.63
2018-09-19T10:33:22.267Z,10.78
2018-09-19T10:35:50.640Z,12.30
2018-09-19T10:38:19.579Z,14.63
2018-09-19T10:40:47.923Z,10.13
2018-09-19T10:43:16.323Z,12.50
2018-09-19T10:45:44.690Z,10.23
2018-09-19T10:48:13.083Z,15.85
2018-09-19T10:50:41.467Z,11.53
2018-09-19T10:53:09.860Z,11.45
2018-09-19T10:55:38.247Z,9.58
2018-09-19T10:58:06.610Z,13.15
2018-09-19T11:00:34.975Z,12.55
2018-09-19T11:03:03.326Z,12.55
2018-09-19T11:05:31.776Z,19.50
2018-09-19T11:08:00.159Z,8.65
2018-09-19T11:10:28.509Z,11.78
2018-09-19T11:12:56.884Z,12.40
2018-09-19T11:15:25.792Z,14.47
2018-09-19T11:17:54.110Z,15.75
2018-09-19T11:20:22.470Z,16.50
2018-09-19T11:22:50.797Z,19.92
2018-09-19T11:25:19.156Z,21.12
2018-09-19T11:27:47.505Z,15.10
2018-09-19T11:30:15.849Z,12.10
2018-09-19T11:32:44.189Z,19.63
2018-09-19T11:35:12.580Z,8.97
2018-09-19T11:37:40.971Z,11.83
2018-09-19T11:40:09.398Z,14.33
2018-09-19T11:42:37.748Z,11.13
2018-09-19T11:45:06.125Z,9.47
2018-09-19T11:47:34.536Z,9.00
2018-09-19T11:50:02.879Z,15.37
2018-09-19T11:52:31.231Z,13.07
2018-09-19T11:54:59.566Z,10.27
2018-09-19T11:57:27.947Z,13.17
2018-09-19T11:59:56.290Z,12.33
2018-09-19T12:02:24.680Z,10.30
2018-09-19T12:04:53.050Z,7.87
2018-09-19T12:07:21.448Z,14.50
2018-09-19T12:09:49.810Z,9.60
2018-09-19T12:12:18.160Z,10.97
2018-09-19T12:14:46.517Z,12.37
2018-09-19T12:17:14.923Z,11.30
2018-09-19T12:19:43.586Z,12.90
2018-09-19T12:22:11.950Z,15.00
2018-09-19T12:24:40.328Z,9.27
2018-09-19T12:27:08.705Z,18.10
2018-09-19T12:29:37.060Z,12.60
2018-09-19T12:32:06.144Z,10.73
2018-09-19T12:34:35.452Z,10.13
2018-09-19T12:37:03.961Z,13.40
2018-09-19T12:39:32.329Z,10.03
2018-09-19T12:42:00.650Z,11.00
2018-09-19T12:44:28.996Z,12.13
2018-09-19T12:46:57.348Z,12.57
2018-09-19T12:49:25.739Z,8.70
2018-09-19T12:51:54.132Z,10.33
2018-09-19T12:54:22.483Z,14.40
2018-09-19T12:56:50.828Z,10.83
2018-09-19T12:59:19.317Z,9.00
2018-09-19T13:01:47.700Z,10.63
2018-09-19T13:04:16.684Z,12.10
2018-09-19T13:06:45.065Z,8.03
2018-09-19T13:09:13.443Z,10.00
2018-09-19T13:11:41.933Z,8.20
2018-09-19T13:14:10.348Z,8.07
2018-09-19T13:16:38.820Z,7.60
2018-09-19T13:19:07.192Z,8.07
2018-09-19T13:21:35.605Z,12.00
2018-09-19T13:24:03.986Z,8.47
2018-09-19T13:26:32.367Z,9.80
2018-09-19T13:29:00.817Z,11.23
2018-09-19T13:31:29.256Z,10.43
2018-09-19T13:33:57.663Z,10.70
2018-09-19T13:36:27.656Z,12.43
2018-09-19T13:38:56.484Z,12.43
2018-09-19T13:41:24.962Z,15.07
2018-09-19T13:43:53.341Z,11.17
2018-09-19T13:46:21.834Z,8.37
2018-09-19T13:48:54.698Z,9.27
2018-09-19T13:51:24.794Z,11.93
2018-09-19T13:53:53.377Z,10.90
2018-09-19T13:56:22.075Z,10.23
2018-09-19T13:58:50.608Z,12.63
2018-09-19T14:01:19.018Z,12.30
2018-09-19T14:03:47.393Z,9.90
2018-09-19T14:06:15.753Z,7.80
2018-09-19T14:08:44.251Z,9.97
2018-09-19T14:11:12.640Z,11.43
2018-09-19T14:13:41.019Z,9.60
2018-09-19T14:16:09.588Z,12.50
2018-09-19T14:18:37.992Z,9.60
2018-09-19T14:21:06.370Z,12.13
2018-09-19T14:23:34.749Z,9.17
2018-09-19T14:26:03.147Z,14.37
2018-09-19T14:28:31.589Z,14.13
2018-09-19T14:30:59.953Z,12.53
2018-09-19T14:33:28.359Z,9.87
2018-09-19T14:35:56.793Z,11.03
2018-09-19T14:38:25.327Z,14.50
2018-09-19T14:40:54.558Z,15.23
2018-09-19T14:43:22.911Z,12.10
2018-09-19T14:45:51.263Z,13.00
2018-09-19T14:48:19.667Z,17.67
2018-09-19T14:50:48.052Z,12.40
2018-09-19T14:53:16.474Z,13.07
2018-09-19T14:55:44.838Z,15.53
2018-09-19T14:58:13.197Z,11.57
2018-09-19T15:00:41.564Z,16.70
2018-09-19T15:03:10.646Z,13.80
2018-09-19T15:05:38.968Z,12.63
2018-09-19T15:08:07.343Z,14.77
2018-09-19T15:10:35.689Z,13.17
2018-09-19T15:13:04.109Z,10.77
2018-09-19T15:15:33.030Z,15.37
2018-09-19T15:18:01.418Z,17.73
2018-09-19T15:20:29.816Z,16.90
2018-09-19T15:22:58.187Z,15.67
2018-09-19T15:25:26.550Z,19.20
2018-09-19T15:27:54.890Z,13.40
2018-09-19T15:30:23.253Z,13.03
2018-09-19T15:32:51.603Z,18.70
2018-09-19T15:35:19.964Z,15.63
2018-09-19T15:37:48.310Z,15.83
2018-09-19T15:40:16.648Z,14.23
2018-09-19T15:42:45.049Z,16.93
2018-09-19T15:45:13.442Z,16.00
2018-09-19T15:47:41.850Z,16.43
2018-09-19T15:50:10.251Z,16.53
2018-09-19T15:52:38.748Z,13.37
2018-09-19T15:55:07.649Z,13.77
2018-09-19T15:57:36.140Z,15.87
2018-09-19T16:00:04.881Z,15.50
2018-09-19T16:02:33.272Z,12.80
2018-09-19T16:05:01.672Z,13.17
2018-09-19T16:07:30.251Z,13.03
2018-09-19T16:09:58.672Z,12.50
2018-09-19T16:12:27.050Z,13.60
2018-09-19T16:14:55.650Z,17.87
2018-09-19T16:17:24.008Z,11.37
2018-09-19T16:19:52.424Z,18.33
2018-09-19T16:22:21.370Z,15.07
2018-09-19T16:24:49.932Z,15.50
2018-09-19T16:27:18.298Z,15.73
2018-09-19T16:29:46.949Z,17.27
2018-09-19T16:32:15.282Z,14.27
2018-09-19T16:34:43.621Z,13.30
2018-09-19T16:37:11.954Z,13.47
2018-09-19T16:39:40.453Z,14.37
2018-09-19T16:42:08.834Z,16.43
2018-09-19T16:44:37.348Z,16.80
2018-09-19T16:47:06.151Z,14.87
2018-09-19T16:49:34.527Z,13.77
2018-09-19T16:52:02.931Z,13.23
2018-09-19T16:54:31.701Z,16.77
2018-09-19T16:57:00.161Z,13.07
2018-09-19T16:59:28.576Z,18.50
2018-09-19T17:01:57.016Z,17.43
2018-09-19T17:04:25.495Z,17.07
2018-09-19T17:06:53.880Z,14.57
2018-09-19T17:09:22.364Z,17.33
2018-09-19T17:11:50.713Z,16.63
2018-09-19T17:14:19.070Z,15.53
2018-09-19T17:16:47.469Z,16.93
2018-09-19T17:19:15.945Z,18.20
2018-09-19T17:21:44.298Z,18.53
2018-09-19T17:24:13.580Z,16.93
2018-09-19T17:26:42.143Z,21.37
2018-09-19T17:29:10.553Z,23.47
2018-09-19T17:31:38.936Z,23.63
2018-09-19T17:34:07.303Z,20.90
2018-09-19T17:36:35.863Z,18.60
2018-09-19T17:39:06.523Z,27.53
2018-09-19T17:41:34.879Z,23.47
2018-09-19T17:44:04.283Z,19.37
2018-09-19T17:46:32.686Z,25.50
2018-09-19T17:49:01.216Z,23.40
2018-09-19T17:51:29.591Z,27.10
2018-09-19T17:53:57.935Z,19.10
2018-09-19T17:56:26.375Z,17.90
2018-09-19T17:58:54.969Z,27.10
2018-09-19T18:01:23.320Z,16.07
2018-09-19T18:03:51.667Z,21.10
2018-09-19T18:06:20.127Z,20.00
2018-09-19T18:08:48.465Z,21.07
2018-09-19T18:11:16.786Z,22.03
2018-09-19T18:13:45.203Z,26.13
2018-09-19T18:16:13.580Z,21.70
2018-09-19T18:18:42.200Z,26.13
2018-09-19T18:21:11.373Z,27.67
2018-09-19T18:23:39.722Z,19.07
2018-09-19T18:26:08.152Z,26.07
2018-09-19T18:28:36.508Z,18.07
2018-09-19T18:31:04.940Z,22.03
2018-09-19T18:33:33.352Z,22.53
2018-09-19T18:36:01.699Z,15.43
2018-09-19T18:38:30.091Z,24.97
2018-09-19T18:40:58.447Z,21.20
2018-09-19T18:43:26.794Z,16.30
2018-09-19T18:45:55.155Z,22.40
2018-09-19T18:48:23.537Z,25.17
2018-09-19T18:50:51.916Z,14.20
2018-09-19T18:53:20.534Z,23.43
2018-09-19T18:55:48.956Z,16.90
2018-09-19T18:58:17.305Z,21.80
2018-09-19T19:10:44.872Z,20.33
2018-09-19T19:13:13.272Z,18.97
2018-09-19T19:15:41.615Z,29.77
2018-09-19T19:18:10.039Z,20.27
2018-09-19T19:20:38.456Z,22.00
2018-09-19T19:23:06.898Z,18.43
2018-09-19T19:25:35.240Z,24.63
2018-09-19T19:28:03.608Z,16.27
2018-09-19T19:30:32.137Z,15.73
2018-09-19T19:34:29.590Z,18.93
2018-09-19T19:36:58.595Z,21.10
2018-09-19T19:39:27.034Z,20.43
2018-09-19T19:41:55.411Z,17.43
2018-09-19T19:44:23.759Z,16.33
2018-09-19T19:46:52.163Z,16.20
2018-09-19T19:49:20.522Z,19.50
2018-09-19T19:51:48.880Z,16.50
2018-09-19T19:54:17.246Z,17.00
2018-09-19T19:56:45.678Z,15.17
2018-09-19T19:59:14.273Z,18.40
2018-09-19T20:01:42.619Z,20.80
2018-09-19T20:04:10.950Z,16.10
2018-09-19T20:06:39.321Z,13.63
2018-09-19T20:09:08.940Z,18.20
2018-09-19T20:11:37.702Z,18.70
2018-09-19T20:14:07.004Z,15.87
2018-09-19T20:16:35.407Z,12.90
2018-09-19T20:19:03.881Z,21.60
2018-09-19T20:21:32.280Z,16.60
2018-09-19T20:24:00.660Z,38.40
2018-09-19T20:26:29.013Z,18.27
2018-09-19T20:28:57.398Z,17.70
2018-09-19T20:31:25.844Z,21.67
2018-09-19T20:33:54.212Z,23.70
2018-09-19T20:36:22.555Z,17.73
2018-09-19T20:38:50.970Z,17.87
2018-09-19T20:41:19.453Z,20.57
2018-09-19T20:43:47.784Z,15.97
2018-09-19T20:46:16.681Z,13.97
2018-09-19T20:48:45.003Z,12.50
2018-09-19T20:51:13.500Z,13.23
2018-09-19T20:53:41.872Z,11.53
2018-09-19T20:56:10.207Z,17.17
2018-09-19T20:58:38.751Z,13.07
2018-09-19T21:01:07.304Z,11.10
2018-09-19T21:03:35.653Z,19.97
2018-09-19T21:06:04.072Z,15.93
2018-09-19T21:08:32.651Z,13.43
2018-09-19T21:11:01.151Z,11.60
2018-09-19T21:13:29.547Z,12.47
2018-09-19T21:15:57.917Z,15.67
2018-09-19T21:18:26.268Z,13.07
2018-09-19T21:20:54.677Z,11.50
2018-09-19T21:23:23.109Z,11.90
2018-09-19T21:25:51.430Z,10.30
2018-09-19T21:28:19.836Z,13.63
2018-09-19T21:30:48.178Z,10.63
2018-09-19T21:33:16.668Z,13.70
2018-09-19T21:35:45.109Z,14.00
2018-09-19T21:38:13.519Z,12.47
2018-09-19T21:40:41.919Z,9.83
2018-09-19T21:43:13.331Z,16.60
2018-09-19T21:45:41.713Z,11.73
2018-09-19T21:48:10.134Z,7.50
2018-09-19T21:50:42.689Z,12.23
2018-09-19T21:55:40.733Z,17.57
2018-09-19T21:58:09.176Z,11.83
2018-09-19T22:00:38.379Z,11.50
2018-09-19T22:03:11.980Z,11.43
2018-09-19T22:06:18.405Z,15.23
2018-09-19T22:08:46.759Z,10.53
2018-09-19T22:11:15.136Z,15.27
2018-09-19T22:13:43.489Z,10.03
2018-09-19T22:16:19.320Z,11.57
2018-09-19T22:18:48.465Z,9.67
2018-09-19T22:24:30.997Z,10.73
2018-09-19T22:27:00.970Z,10.33
2018-09-19T22:32:23.554Z,10.50
2018-09-19T22:34:52.848Z,9.97
2018-09-19T22:37:22.091Z,12.63
2018-09-19T22:39:51.170Z,8.67
2018-09-19T22:42:20.454Z,9.40
2018-09-19T22:44:51.568Z,12.63
2018-09-19T22:47:20.858Z,10.00
2018-09-19T22:49:51.427Z,9.63
2018-09-19T22:52:20.590Z,13.03
2018-09-19T22:54:49.877Z,9.73
2018-09-19T22:57:19.128Z,11.60
2018-09-19T22:59:48.871Z,11.17
2018-09-19T23:02:19.946Z,10.83
2018-09-19T23:04:50.703Z,8.93
2018-09-19T23:07:20.096Z,10.03
2018-09-19T23:09:50.000Z,13.23
2018-09-19T23:12:20.688Z,9.00
2018-09-19T23:14:51.599Z,10.70
2018-09-19T23:17:21.757Z,9.63
2018-09-19T23:19:52.714Z,10.83
2018-09-19T23:22:21.947Z,9.47
2018-09-19T23:24:51.867Z,10.43
2018-09-19T23:27:21.652Z,10.30
2018-09-19T23:29:51.800Z,12.03
2018-09-19T23:32:22.784Z,13.80
2018-09-19T23:34:52.898Z,9.43
2018-09-19T23:37:23.152Z,11.13
2018-09-19T23:39:53.165Z,13.07
2018-09-19T23:42:24.167Z,8.50
2018-09-19T23:44:54.144Z,12.87
2018-09-19T23:47:24.238Z,11.00
2018-09-19T23:49:54.527Z,7.13
2018-09-19T23:52:25.556Z,10.10
2018-09-19T23:54:55.967Z,10.03
2018-09-19T23:57:26.199Z,15.27
2018-09-19T23:59:57.018Z,10.60
